Iron Mountain, South Dakota
Current Conditions -  °F | °C
As of 5:55 AM on Thursday 27 Nov 2014 (Local Time) from K9V9 Reporting Station
Overcast Overcast  
Wind Chill: -3°   Ceiling: 4800
Heat Index: 10°   Visibility: 10mi
Dew Point:   Wind: 9mph
Humidity: 75%   Direction: 110°ESE
Pressure: 30.4"   Gusts: NA
Location:  43.8859°N, 99.8336°W
Report Text: K9V9 271155Z AUTO 11008KT 10SM OVC048 M12/M16 A3040 RMK AO2 T11241160 11112 21125
Loading
Personal Weather Stations






























Interactive Weather Map New forecast layout! Learn more

10-Day Weather Forecast

Advertisements
Track Severe Weather on mobile